sensor_id;sensor_type;location;lat;lon;timestamp;pressure;altitude;pressure_sealevel;temperature;humidity
41467;BME280;27205;53.690;19.948;2023-05-16T00:02:26;98818.96;;;13.27;83.42
41467;BME280;27205;53.690;19.948;2023-05-16T00:07:29;98815.41;;;13.31;83.53
41467;BME280;27205;53.690;19.948;2023-05-16T00:12:32;98810.14;;;13.36;83.67
41467;BME280;27205;53.690;19.948;2023-05-16T00:17:35;98813.44;;;13.38;83.43
41467;BME280;27205;53.690;19.948;2023-05-16T00:22:37;98809.31;;;13.40;83.54
41467;BME280;27205;53.690;19.948;2023-05-16T00:27:39;98808.44;;;13.42;83.46
41467;BME280;27205;53.690;19.948;2023-05-16T00:32:41;98803.02;;;13.44;83.61
41467;BME280;27205;53.690;19.948;2023-05-16T00:37:44;98801.30;;;13.42;83.77
41467;BME280;27205;53.690;19.948;2023-05-16T00:42:46;98798.56;;;13.37;84.14
41467;BME280;27205;53.690;19.948;2023-05-16T00:47:49;98800.02;;;13.36;84.07
41467;BME280;27205;53.690;19.948;2023-05-16T00:52:52;98800.39;;;13.35;84.48
41467;BME280;27205;53.690;19.948;2023-05-16T00:57:54;98800.86;;;13.28;84.64
41467;BME280;27205;53.690;19.948;2023-05-16T01:02:57;98797.77;;;13.18;85.06
41467;BME280;27205;53.690;19.948;2023-05-16T01:07:59;98799.73;;;13.18;84.97
41467;BME280;27205;53.690;19.948;2023-05-16T01:13:08;98806.21;;;13.12;85.21
41467;BME280;27205;53.690;19.948;2023-05-16T01:18:24;98800.84;;;13.10;84.99
41467;BME280;27205;53.690;19.948;2023-05-16T01:28:35;98812.23;;;13.00;85.41
41467;BME280;27205;53.690;19.948;2023-05-16T01:33:37;98815.87;;;12.96;85.49
41467;BME280;27205;53.690;19.948;2023-05-16T01:44:04;98817.32;;;12.85;85.85
41467;BME280;27205;53.690;19.948;2023-05-16T01:49:24;98819.83;;;12.78;85.76
41467;BME280;27205;53.690;19.948;2023-05-16T01:54:31;98827.32;;;12.75;85.69
41467;BME280;27205;53.690;19.948;2023-05-16T01:59:34;98825.79;;;12.71;85.86
41467;BME280;27205;53.690;19.948;2023-05-16T02:04:37;98823.27;;;12.70;86.01
41467;BME280;27205;53.690;19.948;2023-05-16T02:09:39;98828.25;;;12.70;86.11
41467;BME280;27205;53.690;19.948;2023-05-16T02:14:41;98830.56;;;12.71;85.96
41467;BME280;27205;53.690;19.948;2023-05-16T02:19:43;98836.79;;;12.70;85.77
41467;BME280;27205;53.690;19.948;2023-05-16T02:24:45;98838.40;;;12.68;86.38
41467;BME280;27205;53.690;19.948;2023-05-16T02:29:47;98835.86;;;12.66;86.57
41467;BME280;27205;53.690;19.948;2023-05-16T02:34:49;98832.45;;;12.65;86.26
41467;BME280;27205;53.690;19.948;2023-05-16T02:39:51;98835.95;;;12.66;86.19
41467;BME280;27205;53.690;19.948;2023-05-16T02:44:53;98835.94;;;12.69;86.25
41467;BME280;27205;53.690;19.948;2023-05-16T02:49:55;98834.44;;;12.68;86.55
41467;BME280;27205;53.690;19.948;2023-05-16T02:54:57;98836.70;;;12.66;86.52
41467;BME280;27205;53.690;19.948;2023-05-16T03:00:20;98838.23;;;12.66;86.62
41467;BME280;27205;53.690;19.948;2023-05-16T03:05:22;98838.29;;;12.63;86.73
41467;BME280;27205;53.690;19.948;2023-05-16T03:10:27;98838.13;;;12.64;86.66
41467;BME280;27205;53.690;19.948;2023-05-16T03:15:29;98839.33;;;12.65;86.79
41467;BME280;27205;53.690;19.948;2023-05-16T03:20:31;98842.48;;;12.68;86.92
41467;BME280;27205;53.690;19.948;2023-05-16T03:25:34;98846.43;;;12.71;86.93
41467;BME280;27205;53.690;19.948;2023-05-16T03:30:37;98846.47;;;12.73;86.91
41467;BME280;27205;53.690;19.948;2023-05-16T03:35:39;98844.05;;;12.75;87.09
41467;BME280;27205;53.690;19.948;2023-05-16T03:40:42;98847.90;;;12.78;86.87
41467;BME280;27205;53.690;19.948;2023-05-16T03:45:44;98850.14;;;12.81;86.79
41467;BME280;27205;53.690;19.948;2023-05-16T03:50:46;98856.35;;;12.85;87.18
41467;BME280;27205;53.690;19.948;2023-05-16T03:55:48;98854.53;;;12.87;86.98
41467;BME280;27205;53.690;19.948;2023-05-16T04:00:50;98859.62;;;12.88;87.12
41467;BME280;27205;53.690;19.948;2023-05-16T04:05:56;98864.19;;;12.87;87.10
41467;BME280;27205;53.690;19.948;2023-05-16T04:10:58;98870.14;;;12.83;87.29
41467;BME280;27205;53.690;19.948;2023-05-16T04:16:00;98873.45;;;12.75;87.23
41467;BME280;27205;53.690;19.948;2023-05-16T04:21:03;98875.36;;;12.71;87.44
41467;BME280;27205;53.690;19.948;2023-05-16T04:26:05;98883.55;;;12.69;87.49
41467;BME280;27205;53.690;19.948;2023-05-16T04:31:07;98881.36;;;12.66;87.28
41467;BME280;27205;53.690;19.948;2023-05-16T04:36:09;98889.11;;;12.59;87.64
41467;BME280;27205;53.690;19.948;2023-05-16T04:41:12;98896.84;;;12.64;87.54
41467;BME280;27205;53.690;19.948;2023-05-16T04:46:14;98895.86;;;12.68;87.93
41467;BME280;27205;53.690;19.948;2023-05-16T04:51:17;98903.48;;;12.74;87.87
41467;BME280;27205;53.690;19.948;2023-05-16T04:56:19;98904.05;;;12.72;88.07
41467;BME280;27205;53.690;19.948;2023-05-16T05:01:21;98912.64;;;12.71;88.01
41467;BME280;27205;53.690;19.948;2023-05-16T05:06:23;98918.23;;;12.67;87.94
41467;BME280;27205;53.690;19.948;2023-05-16T05:11:25;98922.73;;;12.58;88.64
41467;BME280;27205;53.690;19.948;2023-05-16T05:16:28;98923.45;;;12.52;88.85
41467;BME280;27205;53.690;19.948;2023-05-16T05:21:31;98928.98;;;12.50;88.73
41467;BME280;27205;53.690;19.948;2023-05-16T05:26:33;98934.51;;;12.48;89.08
41467;BME280;27205;53.690;19.948;2023-05-16T05:31:35;98945.88;;;12.42;89.63
41467;BME280;27205;53.690;19.948;2023-05-16T05:36:37;98963.02;;;12.26;90.30
41467;BME280;27205;53.690;19.948;2023-05-16T05:41:39;98971.41;;;12.15;91.09
41467;BME280;27205;53.690;19.948;2023-05-16T05:46:42;98976.45;;;12.10;91.17
41467;BME280;27205;53.690;19.948;2023-05-16T05:51:44;98988.23;;;12.11;91.07
41467;BME280;27205;53.690;19.948;2023-05-16T05:56:46;98996.96;;;12.18;90.73
41467;BME280;27205;53.690;19.948;2023-05-16T06:01:49;99000.35;;;12.42;90.81
41467;BME280;27205;53.690;19.948;2023-05-16T06:06:54;99007.41;;;12.76;90.58
41467;BME280;27205;53.690;19.948;2023-05-16T06:11:57;99016.40;;;12.75;90.09
41467;BME280;27205;53.690;19.948;2023-05-16T06:16:59;99023.70;;;12.96;89.87
41467;BME280;27205;53.690;19.948;2023-05-16T06:22:01;99029.59;;;13.05;89.50
41467;BME280;27205;53.690;19.948;2023-05-16T06:27:03;99034.33;;;13.06;89.13
41467;BME280;27205;53.690;19.948;2023-05-16T06:32:06;99044.56;;;12.99;89.00
41467;BME280;27205;53.690;19.948;2023-05-16T06:37:08;99048.08;;;12.90;88.59
41467;BME280;27205;53.690;19.948;2023-05-16T06:42:10;99059.38;;;12.86;88.66
41467;BME280;27205;53.690;19.948;2023-05-16T06:47:14;99064.55;;;12.82;88.05
41467;BME280;27205;53.690;19.948;2023-05-16T06:52:17;99073.21;;;12.75;88.39
41467;BME280;27205;53.690;19.948;2023-05-16T06:57:19;99089.26;;;12.72;88.60
41467;BME280;27205;53.690;19.948;2023-05-16T07:02:21;99096.93;;;12.83;88.30
41467;BME280;27205;53.690;19.948;2023-05-16T07:07:24;99103.43;;;13.06;88.36
41467;BME280;27205;53.690;19.948;2023-05-16T07:12:26;99109.52;;;13.21;88.21
41467;BME280;27205;53.690;19.948;2023-05-16T07:17:28;99129.86;;;13.30;87.84
41467;BME280;27205;53.690;19.948;2023-05-16T07:22:31;99130.58;;;13.29;87.30
41467;BME280;27205;53.690;19.948;2023-05-16T07:27:33;99139.27;;;13.29;87.03
41467;BME280;27205;53.690;19.948;2023-05-16T07:32:35;99145.09;;;13.64;86.70
41467;BME280;27205;53.690;19.948;2023-05-16T07:37:38;99156.84;;;13.99;85.69
41467;BME280;27205;53.690;19.948;2023-05-16T07:42:43;99158.41;;;14.08;85.18
41467;BME280;27205;53.690;19.948;2023-05-16T07:47:45;99162.17;;;14.10;84.50
41467;BME280;27205;53.690;19.948;2023-05-16T07:52:48;99168.33;;;14.14;84.10
41467;BME280;27205;53.690;19.948;2023-05-16T07:57:50;99182.00;;;14.17;83.99
41467;BME280;27205;53.690;19.948;2023-05-16T08:02:52;99194.39;;;14.26;83.33
41467;BME280;27205;53.690;19.948;2023-05-16T08:07:55;99201.64;;;14.17;82.94
41467;BME280;27205;53.690;19.948;2023-05-16T08:12:57;99212.77;;;14.16;82.66
41467;BME280;27205;53.690;19.948;2023-05-16T08:18:00;99219.25;;;14.18;82.67
41467;BME280;27205;53.690;19.948;2023-05-16T08:23:02;99241.52;;;14.25;82.19
41467;BME280;27205;53.690;19.948;2023-05-16T08:28:05;99252.09;;;14.17;81.97
41467;BME280;27205;53.690;19.948;2023-05-16T08:33:07;99263.00;;;14.24;81.51
41467;BME280;27205;53.690;19.948;2023-05-16T08:38:11;99262.33;;;14.44;81.28
41467;BME280;27205;53.690;19.948;2023-05-16T08:43:13;99283.25;;;14.84;80.74
41467;BME280;27205;53.690;19.948;2023-05-16T08:48:15;99286.91;;;14.96;79.89
41467;BME280;27205;53.690;19.948;2023-05-16T08:53:25;99287.15;;;14.89;79.38
41467;BME280;27205;53.690;19.948;2023-05-16T08:58:33;99290.86;;;14.68;79.35
41467;BME280;27205;53.690;19.948;2023-05-16T09:03:36;99300.79;;;14.57;79.08
41467;BME280;27205;53.690;19.948;2023-05-16T09:08:38;99315.91;;;14.49;79.08
41467;BME280;27205;53.690;19.948;2023-05-16T09:13:41;99327.27;;;14.52;78.97
41467;BME280;27205;53.690;19.948;2023-05-16T09:18:46;99327.89;;;14.62;78.93
41467;BME280;27205;53.690;19.948;2023-05-16T09:23:54;99335.36;;;14.94;78.58
41467;BME280;27205;53.690;19.948;2023-05-16T09:28:57;99354.66;;;15.30;77.66
41467;BME280;27205;53.690;19.948;2023-05-16T09:33:59;99370.34;;;15.59;76.33
41467;BME280;27205;53.690;19.948;2023-05-16T09:39:04;99362.77;;;16.17;76.06
41467;BME280;27205;53.690;19.948;2023-05-16T09:44:06;99362.84;;;16.98;74.58
41467;BME280;27205;53.690;19.948;2023-05-16T09:49:11;99388.53;;;17.46;71.99
41467;BME280;27205;53.690;19.948;2023-05-16T09:54:13;99399.60;;;17.21;71.24
41467;BME280;27205;53.690;19.948;2023-05-16T09:59:16;99407.75;;;17.14;70.88
41467;BME280;27205;53.690;19.948;2023-05-16T10:04:19;99414.55;;;16.90;69.60
41467;BME280;27205;53.690;19.948;2023-05-16T10:09:21;99423.34;;;16.70;69.77
41467;BME280;27205;53.690;19.948;2023-05-16T10:14:24;99420.45;;;17.03;69.97
41467;BME280;27205;53.690;19.948;2023-05-16T10:19:28;99427.13;;;17.54;69.34
41467;BME280;27205;53.690;19.948;2023-05-16T10:24:59;99426.06;;;18.12;69.10
41467;BME280;27205;53.690;19.948;2023-05-16T10:30:00;99441.72;;;18.06;67.35
41467;BME280;27205;53.690;19.948;2023-05-16T10:35:04;99439.81;;;17.84;66.27
41467;BME280;27205;53.690;19.948;2023-05-16T10:40:07;99448.68;;;17.93;65.80
41467;BME280;27205;53.690;19.948;2023-05-16T10:45:17;99451.42;;;18.24;64.95
41467;BME280;27205;53.690;19.948;2023-05-16T10:50:44;99449.59;;;18.48;64.05
41467;BME280;27205;53.690;19.948;2023-05-16T11:01:23;99478.93;;;18.23;62.54
41467;BME280;27205;53.690;19.948;2023-05-16T11:11:54;99486.53;;;17.49;63.18
41467;BME280;27205;53.690;19.948;2023-05-16T11:17:14;99495.89;;;17.08;63.42
41467;BME280;27205;53.690;19.948;2023-05-16T11:27:24;99513.14;;;17.46;64.12
41467;BME280;27205;53.690;19.948;2023-05-16T11:32:27;99527.48;;;18.01;63.79
41467;BME280;27205;53.690;19.948;2023-05-16T11:37:30;99531.42;;;18.37;63.69
41467;BME280;27205;53.690;19.948;2023-05-16T11:47:43;99549.74;;;18.58;61.91
41467;BME280;27205;53.690;19.948;2023-05-16T11:52:53;99557.73;;;18.44;61.57
41467;BME280;27205;53.690;19.948;2023-05-16T11:57:58;99569.09;;;18.13;61.74
41467;BME280;27205;53.690;19.948;2023-05-16T12:03:02;99575.45;;;17.77;62.28
41467;BME280;27205;53.690;19.948;2023-05-16T12:08:05;99583.20;;;17.58;61.88
41467;BME280;27205;53.690;19.948;2023-05-16T12:13:08;99592.69;;;17.35;62.00
41467;BME280;27205;53.690;19.948;2023-05-16T12:18:11;99609.30;;;17.30;62.15
41467;BME280;27205;53.690;19.948;2023-05-16T12:23:13;99608.61;;;17.75;62.31
41467;BME280;27205;53.690;19.948;2023-05-16T12:28:16;99606.86;;;18.67;62.37
41467;BME280;27205;53.690;19.948;2023-05-16T12:33:18;99616.27;;;19.38;61.45
41467;BME280;27205;53.690;19.948;2023-05-16T12:38:22;99615.82;;;19.71;60.63
41467;BME280;27205;53.690;19.948;2023-05-16T12:43:27;99623.42;;;19.68;60.64
41467;BME280;27205;53.690;19.948;2023-05-16T12:48:33;99625.14;;;19.95;60.27
41467;BME280;27205;53.690;19.948;2023-05-16T12:53:44;99621.98;;;20.63;59.09
41467;BME280;27205;53.690;19.948;2023-05-16T12:59:03;99626.19;;;21.21;57.97
41467;BME280;27205;53.690;19.948;2023-05-16T13:04:05;99634.94;;;21.61;57.68
41467;BME280;27205;53.690;19.948;2023-05-16T13:09:07;99648.17;;;21.61;57.07
41467;BME280;27205;53.690;19.948;2023-05-16T13:14:11;99657.80;;;20.88;55.53
41467;BME280;27205;53.690;19.948;2023-05-16T13:19:13;99661.73;;;20.47;55.17
41467;BME280;27205;53.690;19.948;2023-05-16T13:24:15;99668.27;;;20.99;55.11
41467;BME280;27205;53.690;19.948;2023-05-16T13:29:18;99679.05;;;21.64;54.79
41467;BME280;27205;53.690;19.948;2023-05-16T13:34:20;99683.00;;;22.37;54.19
41467;BME280;27205;53.690;19.948;2023-05-16T13:39:22;99691.87;;;23.00;53.73
41467;BME280;27205;53.690;19.948;2023-05-16T13:44:24;99701.91;;;22.51;53.94
41467;BME280;27205;53.690;19.948;2023-05-16T13:49:27;99696.05;;;21.76;53.82
41467;BME280;27205;53.690;19.948;2023-05-16T13:54:30;99696.77;;;20.84;52.94
41467;BME280;27205;53.690;19.948;2023-05-16T13:59:32;99698.36;;;20.30;53.35
41467;BME280;27205;53.690;19.948;2023-05-16T14:04:54;99697.36;;;19.99;53.98
41467;BME280;27205;53.690;19.948;2023-05-16T14:09:56;99686.05;;;19.50;53.81
41467;BME280;27205;53.690;19.948;2023-05-16T14:14:59;99682.76;;;19.10;54.16
41467;BME280;27205;53.690;19.948;2023-05-16T14:20:01;99682.55;;;18.78;54.61
41467;BME280;27205;53.690;19.948;2023-05-16T14:25:05;99679.70;;;18.72;55.12
41467;BME280;27205;53.690;19.948;2023-05-16T14:30:07;99685.68;;;18.74;55.19
41467;BME280;27205;53.690;19.948;2023-05-16T14:35:10;99696.20;;;18.76;55.39
41467;BME280;27205;53.690;19.948;2023-05-16T14:40:12;99697.05;;;18.90;55.55
41467;BME280;27205;53.690;19.948;2023-05-16T14:45:15;99697.62;;;19.19;55.54
41467;BME280;27205;53.690;19.948;2023-05-16T14:50:17;99700.88;;;19.58;55.46
41467;BME280;27205;53.690;19.948;2023-05-16T14:55:20;99701.41;;;19.72;55.14
41467;BME280;27205;53.690;19.948;2023-05-16T15:00:23;99705.46;;;20.06;55.04
41467;BME280;27205;53.690;19.948;2023-05-16T15:05:27;99711.06;;;20.78;54.05
41467;BME280;27205;53.690;19.948;2023-05-16T15:10:29;99715.46;;;21.51;53.21
41467;BME280;27205;53.690;19.948;2023-05-16T15:15:31;99706.52;;;22.44;52.17
41467;BME280;27205;53.690;19.948;2023-05-16T15:20:34;99713.80;;;23.37;51.34
41467;BME280;27205;53.690;19.948;2023-05-16T15:25:36;99716.54;;;23.33;50.49
41467;BME280;27205;53.690;19.948;2023-05-16T15:30:38;99726.31;;;23.49;49.60
41467;BME280;27205;53.690;19.948;2023-05-16T15:35:41;99721.23;;;24.24;48.63
41467;BME280;27205;53.690;19.948;2023-05-16T15:40:43;99728.92;;;24.72;48.32
41467;BME280;27205;53.690;19.948;2023-05-16T15:45:45;99727.45;;;25.47;47.28
41467;BME280;27205;53.690;19.948;2023-05-16T15:50:47;99727.44;;;26.03;46.79
41467;BME280;27205;53.690;19.948;2023-05-16T15:55:50;99726.77;;;26.38;45.31
41467;BME280;27205;53.690;19.948;2023-05-16T16:00:52;99724.19;;;25.75;45.15
41467;BME280;27205;53.690;19.948;2023-05-16T16:05:56;99734.55;;;28.07;44.28
41467;BME280;27205;53.690;19.948;2023-05-16T16:10:58;99736.74;;;30.13;43.45
41467;BME280;27205;53.690;19.948;2023-05-16T16:16:00;99745.56;;;30.12;42.23
41467;BME280;27205;53.690;19.948;2023-05-16T16:21:03;99748.49;;;27.84;42.34
41467;BME280;27205;53.690;19.948;2023-05-16T16:26:05;99744.52;;;26.09;42.56
41467;BME280;27205;53.690;19.948;2023-05-16T16:31:07;99743.31;;;24.91;42.91
41467;BME280;27205;53.690;19.948;2023-05-16T16:36:09;99736.52;;;23.41;43.17
41467;BME280;27205;53.690;19.948;2023-05-16T16:41:12;99732.90;;;22.26;43.86
41467;BME280;27205;53.690;19.948;2023-05-16T16:46:15;99730.52;;;21.54;44.53
41467;BME280;27205;53.690;19.948;2023-05-16T16:51:18;99732.81;;;20.86;45.02
41467;BME280;27205;53.690;19.948;2023-05-16T16:56:20;99739.52;;;20.33;45.48
41467;BME280;27205;53.690;19.948;2023-05-16T17:01:22;99742.27;;;19.82;46.09
41467;BME280;27205;53.690;19.948;2023-05-16T17:06:25;99746.16;;;19.37;46.48
41467;BME280;27205;53.690;19.948;2023-05-16T17:11:27;99745.93;;;18.88;47.40
41467;BME280;27205;53.690;19.948;2023-05-16T17:16:30;99748.76;;;18.49;48.15
41467;BME280;27205;53.690;19.948;2023-05-16T17:21:33;99752.52;;;18.23;48.49
41467;BME280;27205;53.690;19.948;2023-05-16T17:26:37;99759.45;;;17.99;49.10
41467;BME280;27205;53.690;19.948;2023-05-16T17:31:40;99765.83;;;17.64;51.22
41467;BME280;27205;53.690;19.948;2023-05-16T17:36:42;99767.63;;;17.28;52.92
41467;BME280;27205;53.690;19.948;2023-05-16T17:41:44;99782.23;;;16.98;53.77
41467;BME280;27205;53.690;19.948;2023-05-16T17:46:46;99789.39;;;16.72;55.37
41467;BME280;27205;53.690;19.948;2023-05-16T17:51:51;99794.21;;;16.49;56.77
41467;BME280;27205;53.690;19.948;2023-05-16T17:56:54;99797.14;;;16.22;59.22
41467;BME280;27205;53.690;19.948;2023-05-16T18:01:56;99805.59;;;15.88;59.66
41467;BME280;27205;53.690;19.948;2023-05-16T18:06:59;99814.48;;;15.60;60.86
41467;BME280;27205;53.690;19.948;2023-05-16T18:12:03;99816.91;;;15.37;61.13
41467;BME280;27205;53.690;19.948;2023-05-16T18:17:06;99819.11;;;15.20;62.52
41467;BME280;27205;53.690;19.948;2023-05-16T18:22:09;99818.09;;;15.00;62.19
41467;BME280;27205;53.690;19.948;2023-05-16T18:27:13;99825.02;;;14.90;63.20
41467;BME280;27205;53.690;19.948;2023-05-16T18:32:16;99829.78;;;14.73;64.27
41467;BME280;27205;53.690;19.948;2023-05-16T18:37:19;99837.45;;;14.61;64.65
41467;BME280;27205;53.690;19.948;2023-05-16T18:42:21;99833.67;;;14.47;65.64
41467;BME280;27205;53.690;19.948;2023-05-16T18:47:23;99837.10;;;14.34;65.61
41467;BME280;27205;53.690;19.948;2023-05-16T18:52:26;99856.05;;;14.23;65.52
41467;BME280;27205;53.690;19.948;2023-05-16T18:57:28;99859.17;;;14.14;66.55
41467;BME280;27205;53.690;19.948;2023-05-16T19:02:30;99865.27;;;14.04;67.18
41467;BME280;27205;53.690;19.948;2023-05-16T19:07:44;99875.91;;;13.96;68.74
41467;BME280;27205;53.690;19.948;2023-05-16T19:12:46;99880.33;;;13.87;68.32
41467;BME280;27205;53.690;19.948;2023-05-16T19:17:49;99886.11;;;13.79;68.56
41467;BME280;27205;53.690;19.948;2023-05-16T19:22:52;99888.89;;;13.73;69.14
41467;BME280;27205;53.690;19.948;2023-05-16T19:27:54;99895.98;;;13.68;68.84
41467;BME280;27205;53.690;19.948;2023-05-16T19:32:56;99898.89;;;13.66;68.60
41467;BME280;27205;53.690;19.948;2023-05-16T19:37:59;99896.49;;;13.62;69.28
41467;BME280;27205;53.690;19.948;2023-05-16T19:43:01;99897.06;;;13.58;69.49
41467;BME280;27205;53.690;19.948;2023-05-16T19:48:03;99902.65;;;13.56;69.34
41467;BME280;27205;53.690;19.948;2023-05-16T19:53:06;99907.35;;;13.56;69.72
41467;BME280;27205;53.690;19.948;2023-05-16T19:58:08;99912.65;;;13.50;69.56
41467;BME280;27205;53.690;19.948;2023-05-16T20:03:10;99913.73;;;13.48;69.70
41467;BME280;27205;53.690;19.948;2023-05-16T20:08:13;99916.46;;;13.44;70.83
41467;BME280;27205;53.690;19.948;2023-05-16T20:13:15;99915.98;;;13.36;70.51
41467;BME280;27205;53.690;19.948;2023-05-16T20:18:21;99919.45;;;13.30;72.09
41467;BME280;27205;53.690;19.948;2023-05-16T20:23:23;99912.81;;;13.15;72.73
41467;BME280;27205;53.690;19.948;2023-05-16T20:28:25;99910.91;;;13.06;72.66
41467;BME280;27205;53.690;19.948;2023-05-16T20:33:27;99911.40;;;13.00;72.78
41467;BME280;27205;53.690;19.948;2023-05-16T20:38:30;99913.25;;;12.91;73.84
41467;BME280;27205;53.690;19.948;2023-05-16T20:43:32;99910.45;;;12.88;73.06
41467;BME280;27205;53.690;19.948;2023-05-16T20:48:34;99910.50;;;12.85;73.49
41467;BME280;27205;53.690;19.948;2023-05-16T20:53:37;99912.96;;;12.80;73.65
41467;BME280;27205;53.690;19.948;2023-05-16T20:58:39;99917.41;;;12.74;74.01
41467;BME280;27205;53.690;19.948;2023-05-16T21:03:42;99917.53;;;12.72;74.27
41467;BME280;27205;53.690;19.948;2023-05-16T21:08:45;99920.77;;;12.70;74.21
41467;BME280;27205;53.690;19.948;2023-05-16T21:13:47;99927.30;;;12.66;74.10
41467;BME280;27205;53.690;19.948;2023-05-16T21:18:49;99930.70;;;12.57;74.60
41467;BME280;27205;53.690;19.948;2023-05-16T21:23:52;99935.16;;;12.48;74.52
41467;BME280;27205;53.690;19.948;2023-05-16T21:28:54;99943.66;;;12.40;74.41
41467;BME280;27205;53.690;19.948;2023-05-16T21:33:57;99952.10;;;12.35;74.60
41467;BME280;27205;53.690;19.948;2023-05-16T21:38:59;99956.62;;;12.28;74.86
41467;BME280;27205;53.690;19.948;2023-05-16T21:44:01;99955.41;;;12.24;74.22
41467;BME280;27205;53.690;19.948;2023-05-16T21:49:04;99956.80;;;12.19;74.42
41467;BME280;27205;53.690;19.948;2023-05-16T21:54:06;99954.91;;;12.16;74.61
41467;BME280;27205;53.690;19.948;2023-05-16T21:59:09;99955.39;;;12.12;74.76
41467;BME280;27205;53.690;19.948;2023-05-16T22:04:11;99961.48;;;12.10;74.57
41467;BME280;27205;53.690;19.948;2023-05-16T22:09:13;99962.06;;;12.08;74.69
41467;BME280;27205;53.690;19.948;2023-05-16T22:14:16;99959.74;;;12.07;74.27
41467;BME280;27205;53.690;19.948;2023-05-16T22:19:18;99958.11;;;12.11;74.25
41467;BME280;27205;53.690;19.948;2023-05-16T22:24:20;99961.40;;;12.10;74.16
41467;BME280;27205;53.690;19.948;2023-05-16T22:29:23;99968.77;;;12.10;73.85
41467;BME280;27205;53.690;19.948;2023-05-16T22:34:25;99965.98;;;12.06;74.00
41467;BME280;27205;53.690;19.948;2023-05-16T22:39:27;99970.75;;;12.05;73.80
41467;BME280;27205;53.690;19.948;2023-05-16T22:44:29;99968.92;;;12.04;73.12
41467;BME280;27205;53.690;19.948;2023-05-16T22:49:32;99970.32;;;12.00;72.99
41467;BME280;27205;53.690;19.948;2023-05-16T22:54:34;99975.42;;;11.99;72.98
41467;BME280;27205;53.690;19.948;2023-05-16T22:59:36;99982.89;;;11.92;72.71
41467;BME280;27205;53.690;19.948;2023-05-16T23:04:39;99990.28;;;11.82;72.67
41467;BME280;27205;53.690;19.948;2023-05-16T23:09:41;99993.95;;;11.70;72.69
41467;BME280;27205;53.690;19.948;2023-05-16T23:14:43;99993.84;;;11.59;72.83
41467;BME280;27205;53.690;19.948;2023-05-16T23:19:46;99994.13;;;11.53;72.81
41467;BME280;27205;53.690;19.948;2023-05-16T23:24:48;99992.31;;;11.44;72.89
41467;BME280;27205;53.690;19.948;2023-05-16T23:29:50;99999.46;;;11.46;73.12
41467;BME280;27205;53.690;19.948;2023-05-16T23:34:52;100000.05;;;11.51;73.14
41467;BME280;27205;53.690;19.948;2023-05-16T23:39:56;100000.77;;;11.48;73.03
41467;BME280;27205;53.690;19.948;2023-05-16T23:44:58;100006.83;;;11.58;73.14
41467;BME280;27205;53.690;19.948;2023-05-16T23:50:01;100004.92;;;11.58;73.03
41467;BME280;27205;53.690;19.948;2023-05-16T23:55:05;100012.27;;;11.62;73.44
